createdAt,value
2019-01-13T00:00:11.761Z,99126.78
2019-01-13T00:02:56.659Z,99127.52
2019-01-13T00:05:39.048Z,99115.91
2019-01-13T00:08:23.603Z,99112.67
2019-01-13T00:11:03.576Z,99118.09
2019-01-13T00:13:43.228Z,99114.16
2019-01-13T00:16:23.268Z,99120.50
2019-01-13T00:19:03.092Z,99114.85
2019-01-13T00:21:46.332Z,99114.77
2019-01-13T00:24:26.231Z,99118.98
2019-01-13T00:27:07.205Z,99123.27
2019-01-13T00:29:46.988Z,99122.09
2019-01-13T00:32:26.784Z,99121.34
2019-01-13T00:35:07.296Z,99113.09
2019-01-13T00:37:50.558Z,99120.15
2019-01-13T00:40:30.329Z,99111.61
2019-01-13T00:43:10.228Z,99124.84
2019-01-13T00:45:52.157Z,99114.81
2019-01-13T00:48:32.008Z,99113.21
2019-01-13T00:51:11.941Z,99115.42
2019-01-13T00:53:51.748Z,99103.33
2019-01-13T00:56:34.678Z,99110.93
2019-01-13T00:59:14.703Z,99115.18
2019-01-13T01:01:56.847Z,99113.92
2019-01-13T01:04:37.019Z,99114.79
2019-01-13T01:07:16.906Z,99113.20
2019-01-13T01:09:56.632Z,99103.88
2019-01-13T01:12:36.432Z,99104.75
2019-01-13T01:15:17.210Z,99100.13
2019-01-13T01:17:56.961Z,99107.36
2019-01-13T01:20:36.833Z,99102.73
2019-01-13T01:23:16.671Z,99101.81
2019-01-13T01:25:56.652Z,99094.09
2019-01-13T01:28:36.350Z,99090.30
2019-01-13T01:31:16.329Z,99089.44
2019-01-13T01:33:56.090Z,99091.80
2019-01-13T01:36:35.880Z,99075.14
2019-01-13T01:39:15.651Z,99072.06
2019-01-13T01:41:55.471Z,99075.94
2019-01-13T01:44:35.176Z,99071.19
2019-01-13T01:47:14.908Z,99068.74
2019-01-13T01:49:54.625Z,99079.79
2019-01-13T01:52:34.653Z,99068.52
2019-01-13T01:55:17.470Z,99075.09
2019-01-13T01:57:57.276Z,99071.09
2019-01-13T02:00:40.631Z,99077.53
2019-01-13T02:03:18.641Z,99073.05
2019-01-13T02:06:00.688Z,99077.34
2019-01-13T02:08:40.717Z,99084.88
2019-01-13T02:11:21.991Z,99074.27
2019-01-13T02:14:04.196Z,99084.86
2019-01-13T02:16:43.997Z,99084.99
2019-01-13T02:19:26.215Z,99086.45
2019-01-13T02:22:06.230Z,99079.66
2019-01-13T02:24:46.453Z,99079.25
2019-01-13T02:27:28.650Z,99077.77
2019-01-13T02:30:11.482Z,99074.27
2019-01-13T02:32:52.716Z,99064.20
2019-01-13T02:35:32.459Z,99065.95
2019-01-13T02:38:12.559Z,99061.28
2019-01-13T02:40:52.824Z,99078.63
2019-01-13T02:43:32.766Z,99065.14
2019-01-13T02:46:12.870Z,99065.81
2019-01-13T02:48:52.623Z,99063.73
2019-01-13T02:51:32.574Z,99055.78
2019-01-13T02:54:13.442Z,99058.51
2019-01-13T02:56:53.540Z,99063.99
2019-01-13T02:59:33.280Z,99079.50
2019-01-13T03:02:13.233Z,99071.05
2019-01-13T03:04:53.848Z,99073.06
2019-01-13T03:07:33.709Z,99066.08
2019-01-13T03:10:17.341Z,99060.13
2019-01-13T03:12:57.400Z,99057.59
2019-01-13T03:15:37.072Z,99061.72
2019-01-13T03:18:16.866Z,99051.50
2019-01-13T03:20:56.730Z,99050.24
2019-01-13T03:23:36.463Z,99050.41
2019-01-13T03:26:16.552Z,99047.52
2019-01-13T03:28:56.493Z,99046.78
2019-01-13T03:31:37.303Z,99047.70
2019-01-13T03:34:17.247Z,99045.09
2019-01-13T03:36:57.016Z,99059.48
2019-01-13T03:39:36.807Z,99057.64
2019-01-13T03:42:16.659Z,99056.27
2019-01-13T03:44:56.344Z,99049.38
2019-01-13T03:47:36.142Z,99053.87
2019-01-13T03:50:20.385Z,99050.86
2019-01-13T03:53:00.327Z,99041.98
2019-01-13T03:55:40.185Z,99056.77
2019-01-13T03:58:19.940Z,99045.59
2019-01-13T04:00:59.710Z,99032.36
2019-01-13T04:03:39.551Z,99031.02
2019-01-13T04:06:19.295Z,99042.36
2019-01-13T04:09:01.148Z,99035.38
2019-01-13T04:11:40.916Z,99037.47
2019-01-13T04:14:20.602Z,99035.48
2019-01-13T04:17:00.531Z,99038.41
2019-01-13T04:19:40.385Z,99037.05
2019-01-13T04:22:21.190Z,99031.16
2019-01-13T04:25:01.139Z,99027.48
2019-01-13T04:27:43.575Z,99043.79
2019-01-13T04:30:23.306Z,99042.87
2019-01-13T04:33:03.115Z,99031.63
2019-01-13T04:35:42.894Z,99035.59
2019-01-13T04:38:22.531Z,99037.50
2019-01-13T04:41:02.332Z,99040.47
2019-01-13T04:43:42.081Z,99024.72
2019-01-13T04:46:21.893Z,99039.11
2019-01-13T04:49:01.669Z,99018.94
2019-01-13T04:51:41.482Z,99015.31
2019-01-13T04:54:22.349Z,99016.66
2019-01-13T04:57:02.136Z,99023.16
2019-01-13T04:59:42.004Z,99017.00
2019-01-13T05:02:24.009Z,99020.66
2019-01-13T05:05:03.867Z,99016.98
2019-01-13T05:07:44.702Z,99027.41
2019-01-13T05:10:24.538Z,99026.26
2019-01-13T05:13:04.618Z,99014.67
2019-01-13T05:15:44.335Z,99023.02
2019-01-13T05:18:24.161Z,99007.63
2019-01-13T05:21:03.902Z,99013.23
2019-01-13T05:23:43.728Z,99024.80
2019-01-13T05:26:23.554Z,99020.83
2019-01-13T05:29:03.430Z,99013.84
2019-01-13T05:31:43.179Z,99006.30
2019-01-13T05:34:23.099Z,99011.78
2019-01-13T05:37:05.756Z,99011.88
2019-01-13T05:39:45.511Z,99012.17
2019-01-13T05:42:25.168Z,99006.95
2019-01-13T05:45:05.847Z,99013.52
2019-01-13T05:47:45.681Z,99011.95
2019-01-13T05:50:26.428Z,99018.05
2019-01-13T05:53:06.498Z,99013.48
2019-01-13T05:55:46.262Z,99017.56
2019-01-13T05:58:27.587Z,99007.84
2019-01-13T06:01:07.246Z,99001.25
2019-01-13T06:03:46.949Z,99009.98
2019-01-13T06:06:26.575Z,98996.58
2019-01-13T06:09:08.422Z,98999.89
2019-01-13T06:11:48.050Z,99008.89
2019-01-13T06:14:27.669Z,99010.77
2019-01-13T06:17:07.422Z,99011.17
2019-01-13T06:19:47.088Z,99006.46
2019-01-13T06:22:26.755Z,99006.25
2019-01-13T06:25:06.790Z,99011.92
2019-01-13T06:27:46.676Z,99008.52
2019-01-13T06:30:26.394Z,98996.97
2019-01-13T06:33:06.143Z,98998.64
2019-01-13T06:35:45.879Z,99000.94
2019-01-13T06:38:25.720Z,99002.70
2019-01-13T06:41:05.524Z,98998.77
2019-01-13T06:43:45.470Z,99001.02
2019-01-13T06:46:25.244Z,98997.23
2019-01-13T06:49:05.402Z,98994.75
2019-01-13T06:51:45.320Z,98992.44
2019-01-13T06:54:25.069Z,98995.04
2019-01-13T06:57:05.015Z,99001.02
2019-01-13T06:59:44.812Z,98999.49
2019-01-13T07:02:24.669Z,98991.64
2019-01-13T07:05:05.049Z,98998.42
2019-01-13T07:07:45.079Z,98994.27
2019-01-13T07:10:24.796Z,98994.92
2019-01-13T07:13:04.694Z,98992.59
2019-01-13T07:15:44.480Z,98990.70
2019-01-13T07:18:24.180Z,98992.41
2019-01-13T07:21:04.077Z,98983.39
2019-01-13T07:23:43.915Z,98974.39
2019-01-13T07:26:23.687Z,98975.58
2019-01-13T07:29:03.514Z,98978.22
2019-01-13T07:31:43.255Z,98969.23
2019-01-13T07:34:22.906Z,98954.53
2019-01-13T07:37:02.642Z,98959.64
2019-01-13T07:39:42.281Z,98955.64
2019-01-13T07:42:21.884Z,98960.45
2019-01-13T07:45:01.574Z,98954.79
2019-01-13T07:47:41.637Z,98954.86
2019-01-13T07:50:21.421Z,98952.93
2019-01-13T07:53:01.168Z,98949.42
2019-01-13T07:55:40.983Z,98936.88
2019-01-13T07:58:20.611Z,98937.72
2019-01-13T08:01:00.323Z,98935.40
2019-01-13T08:03:40.010Z,98938.94
2019-01-13T08:06:19.811Z,98939.20
2019-01-13T08:08:59.555Z,98935.70
2019-01-13T08:11:39.388Z,98929.16
2019-01-13T08:14:19.169Z,98919.60
2019-01-13T08:16:58.792Z,98925.13
2019-01-13T08:19:39.418Z,98916.72
2019-01-13T08:22:19.296Z,98915.06
2019-01-13T08:24:58.929Z,98900.08
2019-01-13T08:27:38.880Z,98893.02
2019-01-13T08:30:19.479Z,98907.44
2019-01-13T08:32:59.363Z,98909.24
2019-01-13T08:35:39.244Z,98898.58
2019-01-13T08:38:18.840Z,98895.28
2019-01-13T08:40:58.619Z,98890.44
2019-01-13T08:43:38.361Z,98886.44
2019-01-13T08:46:18.163Z,98871.12
2019-01-13T08:48:58.111Z,98867.63
2019-01-13T08:51:37.942Z,98863.80
2019-01-13T08:54:17.695Z,98857.50
2019-01-13T08:56:57.448Z,98846.33
2019-01-13T08:59:37.235Z,98856.20
2019-01-13T09:02:16.936Z,98843.76
2019-01-13T09:04:56.690Z,98834.06
2019-01-13T09:07:36.451Z,98839.06
2019-01-13T09:10:17.564Z,98820.58
2019-01-13T09:12:59.561Z,98820.61
2019-01-13T09:15:39.411Z,98823.53
2019-01-13T09:18:19.192Z,98817.86
2019-01-13T09:20:58.987Z,98812.14
2019-01-13T09:23:38.740Z,98811.51
2019-01-13T09:26:18.478Z,98799.09
2019-01-13T09:28:58.341Z,98792.07
2019-01-13T09:31:37.986Z,98787.47
2019-01-13T09:34:17.625Z,98787.22
2019-01-13T09:36:57.392Z,98785.44
2019-01-13T09:39:37.064Z,98776.58
2019-01-13T09:42:16.747Z,98768.09
2019-01-13T09:44:58.065Z,98767.67
2019-01-13T09:47:37.803Z,98752.68
2019-01-13T09:50:19.347Z,98747.45
2019-01-13T09:52:59.322Z,98746.47
2019-01-13T09:55:39.139Z,98738.89
2019-01-13T09:58:19.146Z,98727.20
2019-01-13T10:00:58.894Z,98727.97
2019-01-13T10:03:40.102Z,98719.19
2019-01-13T10:06:19.818Z,98714.66
2019-01-13T10:08:59.802Z,98715.53
2019-01-13T10:11:39.731Z,98714.26
2019-01-13T10:14:19.400Z,98706.20
2019-01-13T10:16:59.059Z,98700.64
2019-01-13T10:19:38.970Z,98700.00
2019-01-13T10:22:18.866Z,98684.23
2019-01-13T10:24:58.587Z,98677.07
2019-01-13T10:27:38.414Z,98686.80
2019-01-13T10:30:21.745Z,98667.11
2019-01-13T10:33:01.797Z,98651.67
2019-01-13T10:35:41.502Z,98656.88
2019-01-13T10:38:21.301Z,98660.39
2019-01-13T10:41:01.072Z,98647.16
2019-01-13T10:43:40.878Z,98649.33
2019-01-13T10:46:20.927Z,98635.08
2019-01-13T10:49:00.945Z,98630.13
2019-01-13T10:51:40.903Z,98626.60
2019-01-13T10:54:20.510Z,98616.34
2019-01-13T10:57:00.251Z,98612.97
2019-01-13T10:59:39.904Z,98602.77
2019-01-13T11:02:19.689Z,98604.02
2019-01-13T11:04:59.555Z,98595.23
2019-01-13T11:07:39.427Z,98584.73
2019-01-13T11:10:19.258Z,98570.00
2019-01-13T11:12:59.009Z,98570.41
2019-01-13T11:15:39.006Z,98554.96
2019-01-13T11:18:18.673Z,98527.86
2019-01-13T11:20:58.435Z,98522.49
2019-01-13T11:23:38.187Z,98518.25
2019-01-13T11:26:18.369Z,98513.80
2019-01-13T11:28:58.763Z,98504.27
2019-01-13T11:31:38.593Z,98502.59
2019-01-13T11:34:18.768Z,98495.44
2019-01-13T11:36:58.649Z,98492.23
2019-01-13T11:39:38.467Z,98477.11
2019-01-13T11:42:18.205Z,98464.88
2019-01-13T11:44:58.315Z,98457.73
2019-01-13T11:47:38.509Z,98448.89
2019-01-13T11:50:20.693Z,98444.97
2019-01-13T11:53:00.380Z,98441.56
2019-01-13T11:55:40.038Z,98435.97
2019-01-13T11:58:19.744Z,98419.23
2019-01-13T12:00:59.509Z,98416.11
2019-01-13T12:03:39.957Z,98405.43
2019-01-13T12:06:20.064Z,98411.49
2019-01-13T12:08:59.914Z,98392.13
2019-01-13T12:11:39.705Z,98388.64
2019-01-13T12:14:19.459Z,98380.36
2019-01-13T12:16:59.332Z,98368.98
2019-01-13T12:19:39.232Z,98362.70
2019-01-13T12:22:20.419Z,98361.00
2019-01-13T12:25:00.253Z,98360.34
2019-01-13T12:27:40.167Z,98358.84
2019-01-13T12:30:25.815Z,98339.55
2019-01-13T12:33:06.108Z,98319.86
2019-01-13T12:35:46.858Z,98318.95
2019-01-13T12:38:26.890Z,98297.83
2019-01-13T12:41:09.300Z,98285.75
2019-01-13T12:43:48.977Z,98275.33
2019-01-13T12:46:28.990Z,98250.45
2019-01-13T12:49:09.129Z,98253.34
2019-01-13T12:51:49.162Z,98233.63
2019-01-13T12:54:29.195Z,98219.43
2019-01-13T12:57:09.177Z,98225.10
2019-01-13T12:59:50.136Z,98231.33
2019-01-13T13:02:29.973Z,98200.06
2019-01-13T13:05:11.167Z,98195.39
2019-01-13T13:07:51.413Z,98170.13
2019-01-13T13:10:37.774Z,98170.88
2019-01-13T13:13:17.545Z,98161.41
2019-01-13T13:15:57.387Z,98156.13
2019-01-13T13:18:37.236Z,98157.78
2019-01-13T13:21:17.109Z,98157.19
2019-01-13T13:23:56.792Z,98135.16
2019-01-13T13:26:36.635Z,98130.70
2019-01-13T13:29:16.522Z,98117.58
2019-01-13T13:31:56.492Z,98121.77
2019-01-13T13:34:36.272Z,98108.25
2019-01-13T13:37:17.746Z,98089.28
2019-01-13T13:39:57.598Z,98087.47
2019-01-13T13:42:37.441Z,98075.74
2019-01-13T13:45:17.509Z,98066.83
2019-01-13T13:47:57.408Z,98068.59
2019-01-13T13:50:38.321Z,98060.20
2019-01-13T13:53:18.294Z,98055.27
2019-01-13T13:55:58.384Z,98046.15
2019-01-13T13:58:38.648Z,98030.83
2019-01-13T14:01:18.711Z,98018.08
2019-01-13T14:04:01.021Z,98021.61
2019-01-13T14:06:41.462Z,98023.23
2019-01-13T14:09:21.644Z,98033.52
2019-01-13T14:12:01.525Z,98027.55
2019-01-13T14:14:41.351Z,98013.28
2019-01-13T14:17:21.032Z,98017.74
2019-01-13T14:20:02.891Z,98014.45
2019-01-13T14:22:43.492Z,98018.12
2019-01-13T14:25:24.773Z,98003.58
2019-01-13T14:28:04.743Z,98001.41
2019-01-13T14:30:44.486Z,97984.91
2019-01-13T14:33:24.755Z,97999.83
2019-01-13T14:36:04.717Z,97987.28
2019-01-13T14:38:47.258Z,97990.11
2019-01-13T14:41:27.111Z,97986.12
2019-01-13T14:44:06.986Z,97981.23
2019-01-13T14:46:56.863Z,97975.72
2019-01-13T14:49:37.455Z,97970.42
2019-01-13T14:52:17.622Z,97958.66
2019-01-13T14:54:57.624Z,97961.37
2019-01-13T14:57:40.573Z,97958.09
2019-01-13T15:00:26.755Z,97953.75
2019-01-13T15:03:07.127Z,97941.74
2019-01-13T15:05:47.020Z,97958.36
2019-01-13T15:08:26.728Z,97958.78
2019-01-13T15:11:10.038Z,97959.47
2019-01-13T15:13:49.786Z,97959.64
2019-01-13T15:16:29.770Z,97949.16
2019-01-13T15:19:09.755Z,97956.98
2019-01-13T15:21:49.612Z,97969.92
2019-01-13T15:24:29.376Z,97949.63
2019-01-13T15:27:09.050Z,97940.50
2019-01-13T15:29:48.743Z,97949.95
2019-01-13T15:32:28.555Z,97948.59
2019-01-13T15:35:08.486Z,97948.61
2019-01-13T15:37:49.418Z,97949.58
2019-01-13T15:40:29.366Z,97947.81
2019-01-13T15:43:09.154Z,97940.32
2019-01-13T15:45:48.945Z,97936.09
2019-01-13T15:48:28.648Z,97920.75
2019-01-13T15:51:08.495Z,97922.13
2019-01-13T15:53:48.423Z,97917.02
2019-01-13T15:56:28.339Z,97909.47
2019-01-13T15:59:08.196Z,97895.81
2019-01-13T16:01:48.538Z,97906.45
2019-01-13T16:04:28.697Z,97886.83
2019-01-13T16:07:13.651Z,97876.13
2019-01-13T16:09:53.324Z,97861.63
2019-01-13T16:12:33.541Z,97861.75
2019-01-13T16:15:13.542Z,97878.56
2019-01-13T16:17:54.471Z,97877.20
2019-01-13T16:20:38.147Z,97878.52
2019-01-13T16:23:17.906Z,97877.06
2019-01-13T16:25:58.025Z,97859.28
2019-01-13T16:28:38.068Z,97858.75
2019-01-13T16:31:17.778Z,97853.44
2019-01-13T16:33:57.964Z,97861.05
2019-01-13T16:36:37.673Z,97856.71
2019-01-13T16:39:17.589Z,97839.53
2019-01-13T16:41:59.384Z,97831.16
2019-01-13T16:44:39.229Z,97816.80
2019-01-13T16:47:19.056Z,97815.84
2019-01-13T16:49:58.796Z,97803.30
2019-01-13T16:52:38.649Z,97774.79
2019-01-13T16:55:18.618Z,97800.83
2019-01-13T16:57:59.554Z,97789.30
2019-01-13T17:00:39.149Z,97768.09
2019-01-13T17:03:18.866Z,97765.05
2019-01-13T17:05:58.559Z,97760.59
2019-01-13T17:08:38.258Z,97744.09
2019-01-13T17:11:17.853Z,97740.03
2019-01-13T17:13:57.606Z,97735.95
2019-01-13T17:16:37.315Z,97733.64
2019-01-13T17:19:17.069Z,97733.36
2019-01-13T17:21:56.770Z,97739.30
2019-01-13T17:24:36.458Z,97736.33
2019-01-13T17:27:17.289Z,97734.75
2019-01-13T17:29:57.740Z,97715.09
2019-01-13T17:32:37.685Z,97717.80
2019-01-13T17:35:17.563Z,97711.93
2019-01-13T17:37:57.309Z,97700.97
2019-01-13T17:40:39.303Z,97703.64
2019-01-13T17:43:19.125Z,97704.93
2019-01-13T17:45:58.816Z,97695.41
2019-01-13T17:48:38.663Z,97702.41
2019-01-13T17:51:18.616Z,97686.80
2019-01-13T17:53:58.200Z,97673.66
2019-01-13T17:56:37.880Z,97674.80
2019-01-13T17:59:17.639Z,97663.81
2019-01-13T18:01:57.715Z,97663.63
2019-01-13T18:04:43.073Z,97654.63
2019-01-13T18:07:19.051Z,97653.78
2019-01-13T18:09:58.796Z,97646.00
2019-01-13T18:12:39.965Z,97644.19
2019-01-13T18:15:19.689Z,97638.70
2019-01-13T18:17:59.330Z,97632.16
2019-01-13T18:20:39.466Z,97620.20
2019-01-13T18:23:18.926Z,97618.38
2019-01-13T18:25:58.966Z,97617.56
2019-01-13T18:28:38.872Z,97614.81
2019-01-13T18:31:18.844Z,97603.12
2019-01-13T18:33:58.862Z,97609.12
2019-01-13T18:36:38.595Z,97599.87
2019-01-13T18:39:18.309Z,97597.12
2019-01-13T18:41:58.249Z,97591.46
2019-01-13T18:44:38.006Z,97594.80
2019-01-13T18:47:17.797Z,97594.13
2019-01-13T18:49:57.566Z,97582.95
2019-01-13T18:52:37.551Z,97592.27
2019-01-13T18:55:17.559Z,97587.06
2019-01-13T18:57:57.396Z,97584.30
2019-01-13T19:00:37.238Z,97588.92
2019-01-13T19:03:16.964Z,97573.56
2019-01-13T19:05:56.786Z,97571.21
2019-01-13T19:08:36.699Z,97575.34
2019-01-13T19:11:38.779Z,97560.09
2019-01-13T19:14:25.643Z,97553.48
2019-01-13T19:17:08.876Z,97555.47
2019-01-13T19:20:25.446Z,97553.49
2019-01-13T19:23:20.067Z,97530.69
2019-01-13T19:26:01.191Z,97536.66
2019-01-13T19:28:41.256Z,97537.52
2019-01-13T19:31:21.097Z,97525.86
2019-01-13T19:34:00.874Z,97535.48
2019-01-13T19:36:40.675Z,97543.29
2019-01-13T19:39:20.492Z,97535.12
2019-01-13T19:42:00.699Z,97520.23
2019-01-13T19:44:41.542Z,97526.80
2019-01-13T19:47:21.528Z,97524.88
2019-01-13T19:50:01.598Z,97511.34
2019-01-13T19:52:41.414Z,97527.40
2019-01-13T19:55:21.690Z,97524.00
2019-01-13T19:58:04.807Z,97561.19
2019-01-13T20:00:44.654Z,97552.41
2019-01-13T20:03:24.381Z,97555.86
2019-01-13T20:06:05.337Z,97578.95
2019-01-13T20:08:45.178Z,97587.08
2019-01-13T20:11:24.991Z,97600.53
2019-01-13T20:14:05.078Z,97596.20
2019-01-13T20:16:44.907Z,97607.90
2019-01-13T20:19:24.680Z,97618.97
2019-01-13T20:22:04.808Z,97633.63
2019-01-13T20:24:44.616Z,97636.97
2019-01-13T20:27:24.732Z,97639.25
2019-01-13T20:30:17.690Z,97639.63
2019-01-13T20:33:00.582Z,97644.98
2019-01-13T20:35:40.548Z,97646.08
2019-01-13T20:38:20.233Z,97672.88
2019-01-13T20:41:00.258Z,97666.78
2019-01-13T20:43:40.012Z,97660.13
2019-01-13T20:46:19.826Z,97664.03
2019-01-13T20:48:59.592Z,97668.17
2019-01-13T20:51:41.753Z,97665.62
2019-01-13T20:54:21.475Z,97649.20
2019-01-13T20:57:01.221Z,97660.98
2019-01-13T20:59:41.873Z,97663.67
2019-01-13T21:02:28.860Z,97664.34
2019-01-13T21:05:08.727Z,97668.84
2019-01-13T21:07:48.682Z,97673.55
2019-01-13T21:10:28.510Z,97670.64
2019-01-13T21:13:20.464Z,97671.97
2019-01-13T21:16:00.232Z,97673.70
2019-01-13T21:18:39.891Z,97683.16
2019-01-13T21:21:19.861Z,97671.80
2019-01-13T21:23:59.722Z,97683.09
2019-01-13T21:26:39.448Z,97688.38
2019-01-13T21:29:19.325Z,97688.11
2019-01-13T21:31:59.964Z,97679.88
2019-01-13T21:34:40.626Z,97681.11
2019-01-13T21:37:20.362Z,97677.59
2019-01-13T21:40:00.165Z,97680.52
2019-01-13T21:42:39.800Z,97680.45
2019-01-13T21:45:20.778Z,97688.36
2019-01-13T21:48:00.481Z,97685.16
2019-01-13T21:50:40.370Z,97674.80
2019-01-13T21:53:20.166Z,97672.23
2019-01-13T21:55:59.860Z,97674.36
2019-01-13T21:58:40.690Z,97675.31
2019-01-13T22:01:20.404Z,97692.15
2019-01-13T22:04:00.007Z,97681.48
2019-01-13T22:06:39.810Z,97672.33
2019-01-13T22:09:19.495Z,97670.39
2019-01-13T22:11:59.112Z,97665.38
2019-01-13T22:14:38.941Z,97663.55
2019-01-13T22:17:18.605Z,97658.63
2019-01-13T22:19:58.417Z,97666.73
2019-01-13T22:22:38.779Z,97664.44
2019-01-13T22:25:18.786Z,97663.99
2019-01-13T22:27:58.776Z,97671.34
2019-01-13T22:30:38.586Z,97675.07
2019-01-13T22:33:18.393Z,97672.66
2019-01-13T22:35:58.075Z,97663.33
2019-01-13T22:38:37.700Z,97664.50
2019-01-13T22:41:17.422Z,97666.41
2019-01-13T22:43:57.106Z,97651.48
2019-01-13T22:46:36.866Z,97660.80
2019-01-13T22:49:16.526Z,97666.65
2019-01-13T22:51:56.342Z,97667.48
2019-01-13T22:54:35.965Z,97679.23
2019-01-13T22:57:15.747Z,97669.66
2019-01-13T22:59:55.698Z,97663.48
2019-01-13T23:02:35.535Z,97689.45
2019-01-13T23:05:15.337Z,97687.74
2019-01-13T23:07:55.014Z,97682.34
2019-01-13T23:10:34.685Z,97684.47
2019-01-13T23:13:14.399Z,97690.45
2019-01-13T23:15:54.105Z,97684.64
2019-01-13T23:18:33.982Z,97686.25
2019-01-13T23:21:13.850Z,97695.62
2019-01-13T23:23:53.553Z,97668.82
2019-01-13T23:26:33.407Z,97682.16
2019-01-13T23:29:14.087Z,97690.60
2019-01-13T23:31:53.857Z,97722.98
2019-01-13T23:34:33.493Z,97709.36
2019-01-13T23:37:15.284Z,97708.97
2019-01-13T23:39:54.971Z,97696.19
2019-01-13T23:42:34.696Z,97704.64
2019-01-13T23:45:14.581Z,97696.42
2019-01-13T23:47:54.325Z,97698.84
2019-01-13T23:50:33.928Z,97717.92
2019-01-13T23:53:14.645Z,97702.13
2019-01-13T23:55:54.493Z,97704.67
2019-01-13T23:58:34.202Z,97707.37
